sensor_id;sensor_type;location;lat;lon;timestamp;pressure;altitude;pressure_sealevel;temperature;humidity
84936;BME280;75210;52.210;20.902;2024-03-02T00:00:22;100079.09;;;7.80;82.66
84936;BME280;75210;52.210;20.902;2024-03-02T00:01:23;100057.78;;;7.68;82.64
84936;BME280;75210;52.210;20.902;2024-03-02T00:02:23;100081.34;;;7.69;83.01
84936;BME280;75210;52.210;20.902;2024-03-02T00:03:24;100076.81;;;7.73;83.16
84936;BME280;75210;52.210;20.902;2024-03-02T00:04:24;100076.09;;;7.69;83.12
84936;BME280;75210;52.210;20.902;2024-03-02T00:05:25;100075.41;;;7.66;83.62
84936;BME280;75210;52.210;20.902;2024-03-02T00:06:25;100079.56;;;7.70;83.42
84936;BME280;75210;52.210;20.902;2024-03-02T00:07:26;100085.19;;;7.81;82.81
84936;BME280;75210;52.210;20.902;2024-03-02T00:08:26;100066.66;;;7.65;83.19
84936;BME280;75210;52.210;20.902;2024-03-02T00:09:27;99973.72;;;7.11;83.06
84936;BME280;75210;52.210;20.902;2024-03-02T00:10:38;100060.41;;;7.68;83.01
84936;BME280;75210;52.210;20.902;2024-03-02T00:11:39;100065.81;;;7.65;83.38
84936;BME280;75210;52.210;20.902;2024-03-02T00:12:40;100062.97;;;7.69;82.86
84936;BME280;75210;52.210;20.902;2024-03-02T00:13:41;100059.41;;;7.70;82.98
84936;BME280;75210;52.210;20.902;2024-03-02T00:14:41;100064.81;;;7.67;83.21
84936;BME280;75210;52.210;20.902;2024-03-02T00:15:46;100066.50;;;7.68;82.84
84936;BME280;75210;52.210;20.902;2024-03-02T00:16:47;100065.22;;;7.58;83.41
84936;BME280;75210;52.210;20.902;2024-03-02T00:17:52;100071.06;;;7.65;83.36
84936;BME280;75210;52.210;20.902;2024-03-02T00:18:53;100070.06;;;7.67;83.57
84936;BME280;75210;52.210;20.902;2024-03-02T00:19:53;100042.81;;;7.51;83.55
84936;BME280;75210;52.210;20.902;2024-03-02T00:20:54;100072.19;;;7.59;83.76
84936;BME280;75210;52.210;20.902;2024-03-02T00:21:55;100073.94;;;7.58;83.53
84936;BME280;75210;52.210;20.902;2024-03-02T00:23:00;100059.25;;;7.54;83.58
84936;BME280;75210;52.210;20.902;2024-03-02T00:24:08;100073.88;;;7.60;83.48
84936;BME280;75210;52.210;20.902;2024-03-02T00:25:18;100061.06;;;7.54;83.66
84936;BME280;75210;52.210;20.902;2024-03-02T00:26:18;100067.34;;;7.50;83.76
84936;BME280;75210;52.210;20.902;2024-03-02T00:27:19;100063.81;;;7.51;84.01
84936;BME280;75210;52.210;20.902;2024-03-02T00:28:21;100063.94;;;7.48;83.85
84936;BME280;75210;52.210;20.902;2024-03-02T00:29:22;100011.63;;;7.25;83.42
84936;BME280;75210;52.210;20.902;2024-03-02T00:30:45;100056.56;;;7.56;83.27
84936;BME280;75210;52.210;20.902;2024-03-02T00:31:51;100064.78;;;7.48;83.71
84936;BME280;75210;52.210;20.902;2024-03-02T00:32:51;100058.63;;;7.49;84.04
84936;BME280;75210;52.210;20.902;2024-03-02T00:33:52;100055.13;;;7.49;83.78
84936;BME280;75210;52.210;20.902;2024-03-02T00:34:53;100056.25;;;7.43;84.03
84936;BME280;75210;52.210;20.902;2024-03-02T00:35:54;100061.97;;;7.53;83.57
84936;BME280;75210;52.210;20.902;2024-03-02T00:36:57;100055.28;;;7.46;83.87
84936;BME280;75210;52.210;20.902;2024-03-02T00:37:57;100053.56;;;7.45;83.97
84936;BME280;75210;52.210;20.902;2024-03-02T00:38:58;100041.66;;;7.38;83.96
84936;BME280;75210;52.210;20.902;2024-03-02T00:39:59;100051.06;;;7.42;84.02
84936;BME280;75210;52.210;20.902;2024-03-02T00:41:03;100052.28;;;7.35;84.13
84936;BME280;75210;52.210;20.902;2024-03-02T00:42:05;100052.72;;;7.44;84.15
84936;BME280;75210;52.210;20.902;2024-03-02T00:43:05;100055.28;;;7.46;83.99
84936;BME280;75210;52.210;20.902;2024-03-02T00:44:07;100063.00;;;7.49;83.45
84936;BME280;75210;52.210;20.902;2024-03-02T00:45:08;100053.50;;;7.46;83.91
84936;BME280;75210;52.210;20.902;2024-03-02T00:46:11;100064.50;;;7.54;83.27
84936;BME280;75210;52.210;20.902;2024-03-02T00:47:12;100062.81;;;7.53;83.73
84936;BME280;75210;52.210;20.902;2024-03-02T00:48:14;100013.25;;;7.27;83.06
84936;BME280;75210;52.210;20.902;2024-03-02T00:49:20;100037.31;;;7.37;83.32
84936;BME280;75210;52.210;20.902;2024-03-02T00:50:21;100039.63;;;7.24;83.61
84936;BME280;75210;52.210;20.902;2024-03-02T00:51:22;100071.81;;;7.48;83.76
84936;BME280;75210;52.210;20.902;2024-03-02T00:52:24;100059.53;;;7.48;83.36
84936;BME280;75210;52.210;20.902;2024-03-02T00:53:26;100057.09;;;7.44;83.48
84936;BME280;75210;52.210;20.902;2024-03-02T00:54:26;100059.09;;;7.39;83.54
84936;BME280;75210;52.210;20.902;2024-03-02T00:55:28;100043.59;;;7.33;83.45
84936;BME280;75210;52.210;20.902;2024-03-02T00:56:28;100061.31;;;7.48;83.42
84936;BME280;75210;52.210;20.902;2024-03-02T00:57:31;100066.50;;;7.49;83.81
84936;BME280;75210;52.210;20.902;2024-03-02T00:58:34;100010.16;;;7.17;83.32
84936;BME280;75210;52.210;20.902;2024-03-02T00:59:34;100068.31;;;7.47;83.34
84936;BME280;75210;52.210;20.902;2024-03-02T01:00:34;100072.72;;;7.47;83.63
84936;BME280;75210;52.210;20.902;2024-03-02T01:01:37;100077.19;;;7.45;83.50
84936;BME280;75210;52.210;20.902;2024-03-02T01:02:37;100067.81;;;7.39;83.78
84936;BME280;75210;52.210;20.902;2024-03-02T01:03:37;99999.44;;;7.03;83.70
84936;BME280;75210;52.210;20.902;2024-03-02T01:04:38;100066.69;;;7.45;83.54
84936;BME280;75210;52.210;20.902;2024-03-02T01:05:41;100028.41;;;7.20;83.70
84936;BME280;75210;52.210;20.902;2024-03-02T01:06:42;100050.50;;;7.35;83.91
84936;BME280;75210;52.210;20.902;2024-03-02T01:07:42;100051.16;;;7.40;83.95
84936;BME280;75210;52.210;20.902;2024-03-02T01:08:43;100040.56;;;7.42;83.60
84936;BME280;75210;52.210;20.902;2024-03-02T01:09:43;100059.16;;;7.37;84.20
84936;BME280;75210;52.210;20.902;2024-03-02T01:10:44;100055.75;;;7.35;83.87
84936;BME280;75210;52.210;20.902;2024-03-02T01:11:44;100055.88;;;7.32;84.11
84936;BME280;75210;52.210;20.902;2024-03-02T01:12:45;100056.66;;;7.34;83.93
84936;BME280;75210;52.210;20.902;2024-03-02T01:13:45;100055.69;;;7.37;84.25
84936;BME280;75210;52.210;20.902;2024-03-02T01:14:46;100045.91;;;7.20;84.47
84936;BME280;75210;52.210;20.902;2024-03-02T01:15:46;100049.06;;;7.28;84.20
84936;BME280;75210;52.210;20.902;2024-03-02T01:16:49;100054.94;;;7.33;84.32
84936;BME280;75210;52.210;20.902;2024-03-02T01:17:50;100038.19;;;7.17;84.35
84936;BME280;75210;52.210;20.902;2024-03-02T01:18:50;100057.69;;;7.30;84.40
84936;BME280;75210;52.210;20.902;2024-03-02T01:19:51;100062.50;;;7.41;83.92
84936;BME280;75210;52.210;20.902;2024-03-02T01:20:51;100052.88;;;7.41;83.90
84936;BME280;75210;52.210;20.902;2024-03-02T01:21:52;100058.38;;;7.35;83.91
84936;BME280;75210;52.210;20.902;2024-03-02T01:22:52;100044.22;;;7.39;83.80
84936;BME280;75210;52.210;20.902;2024-03-02T01:23:53;100066.00;;;7.41;83.92
84936;BME280;75210;52.210;20.902;2024-03-02T01:24:53;99980.72;;;6.92;84.15
84936;BME280;75210;52.210;20.902;2024-03-02T01:25:54;100055.06;;;7.30;84.28
84936;BME280;75210;52.210;20.902;2024-03-02T01:26:54;100051.53;;;7.31;83.81
84936;BME280;75210;52.210;20.902;2024-03-02T01:27:55;100055.03;;;7.32;84.10
84936;BME280;75210;52.210;20.902;2024-03-02T01:28:55;100045.13;;;7.18;84.51
84936;BME280;75210;52.210;20.902;2024-03-02T01:29:56;100022.59;;;7.14;84.13
84936;BME280;75210;52.210;20.902;2024-03-02T01:30:56;99992.13;;;6.91;84.16
84936;BME280;75210;52.210;20.902;2024-03-02T01:31:58;100050.06;;;7.26;84.08
84936;BME280;75210;52.210;20.902;2024-03-02T01:32:59;100033.78;;;7.17;84.36
84936;BME280;75210;52.210;20.902;2024-03-02T01:33:59;100051.50;;;7.12;84.65
84936;BME280;75210;52.210;20.902;2024-03-02T01:35:00;100049.13;;;7.06;84.75
84936;BME280;75210;52.210;20.902;2024-03-02T01:36:00;100011.91;;;6.98;84.74
84936;BME280;75210;52.210;20.902;2024-03-02T01:37:01;100046.63;;;7.24;84.30
84936;BME280;75210;52.210;20.902;2024-03-02T01:38:01;100027.09;;;7.10;84.73
84936;BME280;75210;52.210;20.902;2024-03-02T01:39:02;100041.31;;;7.25;84.20
84936;BME280;75210;52.210;20.902;2024-03-02T01:40:03;99950.28;;;6.68;84.18
84936;BME280;75210;52.210;20.902;2024-03-02T01:41:03;100035.56;;;7.17;84.74
84936;BME280;75210;52.210;20.902;2024-03-02T01:42:04;100021.97;;;7.07;84.70
84936;BME280;75210;52.210;20.902;2024-03-02T01:43:06;100035.03;;;7.09;84.99
84936;BME280;75210;52.210;20.902;2024-03-02T01:44:06;100036.75;;;7.10;84.95
84936;BME280;75210;52.210;20.902;2024-03-02T01:45:08;99977.16;;;6.73;85.27
84936;BME280;75210;52.210;20.902;2024-03-02T01:46:09;100033.38;;;7.06;84.86
84936;BME280;75210;52.210;20.902;2024-03-02T01:47:11;100029.91;;;7.06;84.84
84936;BME280;75210;52.210;20.902;2024-03-02T01:48:11;100021.28;;;7.04;84.96
84936;BME280;75210;52.210;20.902;2024-03-02T01:49:12;99993.09;;;6.89;84.74
84936;BME280;75210;52.210;20.902;2024-03-02T01:50:12;100004.22;;;6.94;85.02
84936;BME280;75210;52.210;20.902;2024-03-02T01:51:13;100022.47;;;7.17;84.48
84936;BME280;75210;52.210;20.902;2024-03-02T01:52:13;100032.59;;;7.25;84.33
84936;BME280;75210;52.210;20.902;2024-03-02T01:53:14;100029.13;;;7.24;84.39
84936;BME280;75210;52.210;20.902;2024-03-02T01:54:14;100030.56;;;7.11;84.94
84936;BME280;75210;52.210;20.902;2024-03-02T01:55:15;100029.53;;;7.15;84.54
84936;BME280;75210;52.210;20.902;2024-03-02T01:56:15;100025.91;;;7.17;84.89
84936;BME280;75210;52.210;20.902;2024-03-02T01:57:16;100018.84;;;6.99;84.91
84936;BME280;75210;52.210;20.902;2024-03-02T01:58:16;100030.63;;;7.09;85.11
84936;BME280;75210;52.210;20.902;2024-03-02T01:59:17;99985.53;;;6.81;85.08
84936;BME280;75210;52.210;20.902;2024-03-02T02:00:18;100026.31;;;7.08;84.98
84936;BME280;75210;52.210;20.902;2024-03-02T02:01:19;100025.47;;;7.08;85.09
84936;BME280;75210;52.210;20.902;2024-03-02T02:02:21;100020.34;;;7.05;85.02
84936;BME280;75210;52.210;20.902;2024-03-02T02:03:22;100028.28;;;7.03;85.11
84936;BME280;75210;52.210;20.902;2024-03-02T02:04:22;100023.81;;;7.05;85.52
84936;BME280;75210;52.210;20.902;2024-03-02T02:05:23;100030.00;;;7.04;85.10
84936;BME280;75210;52.210;20.902;2024-03-02T02:06:23;100026.25;;;7.10;84.88
84936;BME280;75210;52.210;20.902;2024-03-02T02:07:24;100033.06;;;7.14;84.55
84936;BME280;75210;52.210;20.902;2024-03-02T02:08:24;100024.47;;;7.10;84.98
84936;BME280;75210;52.210;20.902;2024-03-02T02:09:25;100012.63;;;7.02;84.92
84936;BME280;75210;52.210;20.902;2024-03-02T02:10:25;100033.59;;;7.02;85.19
84936;BME280;75210;52.210;20.902;2024-03-02T02:11:26;100029.59;;;6.93;85.31
84936;BME280;75210;52.210;20.902;2024-03-02T02:12:26;100031.28;;;6.94;85.61
84936;BME280;75210;52.210;20.902;2024-03-02T02:13:27;100036.28;;;7.00;85.28
84936;BME280;75210;52.210;20.902;2024-03-02T02:14:27;100030.97;;;7.02;85.44
84936;BME280;75210;52.210;20.902;2024-03-02T02:15:28;100026.78;;;6.98;85.46
84936;BME280;75210;52.210;20.902;2024-03-02T02:16:29;100028.28;;;7.03;85.41
84936;BME280;75210;52.210;20.902;2024-03-02T02:17:31;100022.25;;;7.01;84.82
84936;BME280;75210;52.210;20.902;2024-03-02T02:18:32;100028.13;;;7.06;84.92
84936;BME280;75210;52.210;20.902;2024-03-02T02:19:32;100021.34;;;7.02;85.20
84936;BME280;75210;52.210;20.902;2024-03-02T02:20:33;100018.72;;;7.02;85.40
84936;BME280;75210;52.210;20.902;2024-03-02T02:21:35;100024.75;;;7.04;85.35
84936;BME280;75210;52.210;20.902;2024-03-02T02:22:35;100027.69;;;6.97;85.28
84936;BME280;75210;52.210;20.902;2024-03-02T02:23:36;99998.59;;;6.82;85.20
84936;BME280;75210;52.210;20.902;2024-03-02T02:24:39;100026.09;;;6.93;85.56
84936;BME280;75210;52.210;20.902;2024-03-02T02:25:40;100019.03;;;6.95;85.45
84936;BME280;75210;52.210;20.902;2024-03-02T02:26:40;100016.28;;;6.98;85.43
84936;BME280;75210;52.210;20.902;2024-03-02T02:27:40;100007.00;;;6.91;85.31
84936;BME280;75210;52.210;20.902;2024-03-02T02:28:41;100026.78;;;6.98;85.27
84936;BME280;75210;52.210;20.902;2024-03-02T02:29:41;100018.25;;;6.93;85.83
84936;BME280;75210;52.210;20.902;2024-03-02T02:30:42;100023.47;;;6.93;85.60
84936;BME280;75210;52.210;20.902;2024-03-02T02:31:42;99976.97;;;6.77;85.66
84936;BME280;75210;52.210;20.902;2024-03-02T02:32:43;100020.09;;;6.91;85.80
84936;BME280;75210;52.210;20.902;2024-03-02T02:33:43;100021.81;;;6.92;85.63
84936;BME280;75210;52.210;20.902;2024-03-02T02:34:44;100015.78;;;6.90;85.79
84936;BME280;75210;52.210;20.902;2024-03-02T02:35:44;100010.19;;;6.97;85.53
84936;BME280;75210;52.210;20.902;2024-03-02T02:36:46;100000.56;;;6.98;85.48
84936;BME280;75210;52.210;20.902;2024-03-02T02:37:47;99957.50;;;6.63;85.46
84936;BME280;75210;52.210;20.902;2024-03-02T02:38:49;100006.13;;;6.90;85.60
84936;BME280;75210;52.210;20.902;2024-03-02T02:39:49;100007.50;;;6.99;85.28
84936;BME280;75210;52.210;20.902;2024-03-02T02:40:50;100014.59;;;6.97;85.58
84936;BME280;75210;52.210;20.902;2024-03-02T02:41:50;100005.91;;;6.95;85.74
84936;BME280;75210;52.210;20.902;2024-03-02T02:42:51;99946.91;;;6.66;84.93
84936;BME280;75210;52.210;20.902;2024-03-02T02:43:51;100009.22;;;7.00;85.25
84936;BME280;75210;52.210;20.902;2024-03-02T02:44:52;100005.91;;;6.95;85.16
84936;BME280;75210;52.210;20.902;2024-03-02T02:45:52;100004.50;;;6.88;85.54
84936;BME280;75210;52.210;20.902;2024-03-02T02:46:53;100003.69;;;6.85;85.96
84936;BME280;75210;52.210;20.902;2024-03-02T02:47:53;100009.22;;;6.79;86.00
84936;BME280;75210;52.210;20.902;2024-03-02T02:48:53;100006.38;;;6.84;86.22
84936;BME280;75210;52.210;20.902;2024-03-02T02:49:54;100006.13;;;6.90;85.74
84936;BME280;75210;52.210;20.902;2024-03-02T02:50:54;100006.25;;;6.87;85.68
84936;BME280;75210;52.210;20.902;2024-03-02T02:51:57;100011.22;;;6.93;85.63
84936;BME280;75210;52.210;20.902;2024-03-02T02:52:57;99956.84;;;6.58;86.21
84936;BME280;75210;52.210;20.902;2024-03-02T02:53:58;100004.44;;;6.89;85.56
84936;BME280;75210;52.210;20.902;2024-03-02T02:54:58;100002.06;;;6.83;86.00
84936;BME280;75210;52.210;20.902;2024-03-02T02:55:58;99996.19;;;6.78;86.19
84936;BME280;75210;52.210;20.902;2024-03-02T02:56:59;100008.81;;;6.89;85.85
84936;BME280;75210;52.210;20.902;2024-03-02T02:57:59;100001.34;;;6.79;85.95
84936;BME280;75210;52.210;20.902;2024-03-02T02:59:00;100003.81;;;6.82;85.81
84936;BME280;75210;52.210;20.902;2024-03-02T03:00:01;100014.00;;;6.90;85.43
84936;BME280;75210;52.210;20.902;2024-03-02T03:01:02;100011.00;;;6.79;86.25
84936;BME280;75210;52.210;20.902;2024-03-02T03:02:02;100008.38;;;6.79;86.20
84936;BME280;75210;52.210;20.902;2024-03-02T03:03:03;99998.53;;;6.84;86.02
84936;BME280;75210;52.210;20.902;2024-03-02T03:04:04;99997.53;;;6.87;85.60
84936;BME280;75210;52.210;20.902;2024-03-02T03:05:05;99998.91;;;6.75;86.17
84936;BME280;75210;52.210;20.902;2024-03-02T03:06:05;100007.63;;;6.75;86.24
84936;BME280;75210;52.210;20.902;2024-03-02T03:07:08;99984.50;;;6.65;86.41
84936;BME280;75210;52.210;20.902;2024-03-02T03:08:08;99999.03;;;6.72;86.24
84936;BME280;75210;52.210;20.902;2024-03-02T03:09:08;100001.34;;;6.79;86.33
84936;BME280;75210;52.210;20.902;2024-03-02T03:10:09;99955.28;;;6.54;85.85
84936;BME280;75210;52.210;20.902;2024-03-02T03:11:10;99994.59;;;6.74;86.10
84936;BME280;75210;52.210;20.902;2024-03-02T03:12:10;99991.25;;;6.70;86.13
84936;BME280;75210;52.210;20.902;2024-03-02T03:13:11;99991.25;;;6.70;86.21
84936;BME280;75210;52.210;20.902;2024-03-02T03:14:11;99998.06;;;6.74;86.00
84936;BME280;75210;52.210;20.902;2024-03-02T03:15:12;99995.69;;;6.68;86.41
84936;BME280;75210;52.210;20.902;2024-03-02T03:16:12;99999.25;;;6.67;86.40
84936;BME280;75210;52.210;20.902;2024-03-02T03:17:13;99994.19;;;6.63;86.34
84936;BME280;75210;52.210;20.902;2024-03-02T03:18:13;99999.84;;;6.74;86.29
84936;BME280;75210;52.210;20.902;2024-03-02T03:19:14;99999.09;;;6.70;86.46
84936;BME280;75210;52.210;20.902;2024-03-02T03:20:14;99986.38;;;6.61;86.21
84936;BME280;75210;52.210;20.902;2024-03-02T03:21:15;100000.34;;;6.62;86.85
84936;BME280;75210;52.210;20.902;2024-03-02T03:22:17;99995.09;;;6.62;86.80
84936;BME280;75210;52.210;20.902;2024-03-02T03:23:18;99990.09;;;6.56;86.71
84936;BME280;75210;52.210;20.902;2024-03-02T03:24:18;99997.59;;;6.65;86.53
84936;BME280;75210;52.210;20.902;2024-03-02T03:25:18;99990.03;;;6.57;86.42
84936;BME280;75210;52.210;20.902;2024-03-02T03:26:19;100006.38;;;6.64;86.44
84936;BME280;75210;52.210;20.902;2024-03-02T03:27:19;100003.63;;;6.67;86.62
84936;BME280;75210;52.210;20.902;2024-03-02T03:28:20;100000.63;;;6.76;86.10
84936;BME280;75210;52.210;20.902;2024-03-02T03:29:20;99996.63;;;6.67;86.54
84936;BME280;75210;52.210;20.902;2024-03-02T03:30:21;99971.25;;;6.47;86.56
84936;BME280;75210;52.210;20.902;2024-03-02T03:31:21;99986.91;;;6.49;86.97
84936;BME280;75210;52.210;20.902;2024-03-02T03:32:22;99977.78;;;6.37;86.93
84936;BME280;75210;52.210;20.902;2024-03-02T03:33:22;99990.56;;;6.45;86.91
84936;BME280;75210;52.210;20.902;2024-03-02T03:34:23;99943.06;;;6.32;86.63
84936;BME280;75210;52.210;20.902;2024-03-02T03:35:23;99996.06;;;6.59;86.76
84936;BME280;75210;52.210;20.902;2024-03-02T03:36:23;99997.19;;;6.54;86.99
84936;BME280;75210;52.210;20.902;2024-03-02T03:37:26;100001.13;;;6.64;86.47
84936;BME280;75210;52.210;20.902;2024-03-02T03:38:26;99999.31;;;6.66;86.64
84936;BME280;75210;52.210;20.902;2024-03-02T03:39:26;99992.59;;;6.59;86.37
84936;BME280;75210;52.210;20.902;2024-03-02T03:40:27;100002.44;;;6.54;86.85
84936;BME280;75210;52.210;20.902;2024-03-02T03:41:27;99998.97;;;6.53;87.00
84936;BME280;75210;52.210;20.902;2024-03-02T03:42:28;99992.47;;;6.62;86.57
84936;BME280;75210;52.210;20.902;2024-03-02T03:43:28;99999.56;;;6.60;86.58
84936;BME280;75210;52.210;20.902;2024-03-02T03:44:29;99996.53;;;6.48;87.10
84936;BME280;75210;52.210;20.902;2024-03-02T03:45:29;100002.56;;;6.51;87.09
84936;BME280;75210;52.210;20.902;2024-03-02T03:46:29;99996.47;;;6.50;87.22
84936;BME280;75210;52.210;20.902;2024-03-02T03:47:31;99994.59;;;6.54;86.81
84936;BME280;75210;52.210;20.902;2024-03-02T03:48:31;99982.63;;;6.46;87.15
84936;BME280;75210;52.210;20.902;2024-03-02T03:49:32;99969.53;;;6.46;86.72
84936;BME280;75210;52.210;20.902;2024-03-02T03:50:34;99985.00;;;6.53;86.87
84936;BME280;75210;52.210;20.902;2024-03-02T03:51:34;99994.38;;;6.58;86.81
84936;BME280;75210;52.210;20.902;2024-03-02T03:52:36;99987.38;;;6.59;86.87
84936;BME280;75210;52.210;20.902;2024-03-02T03:53:36;99980.56;;;6.55;87.04
84936;BME280;75210;52.210;20.902;2024-03-02T03:54:37;99953.22;;;6.40;86.87
84936;BME280;75210;52.210;20.902;2024-03-02T03:55:37;99981.72;;;6.47;87.22
84936;BME280;75210;52.210;20.902;2024-03-02T03:56:38;99990.91;;;6.58;86.83
84936;BME280;75210;52.210;20.902;2024-03-02T03:57:38;99995.09;;;6.62;86.79
84936;BME280;75210;52.210;20.902;2024-03-02T03:58:39;99995.28;;;6.57;86.71
84936;BME280;75210;52.210;20.902;2024-03-02T03:59:39;99990.72;;;6.62;86.71
84936;BME280;75210;52.210;20.902;2024-03-02T04:00:40;99994.44;;;6.57;87.08
84936;BME280;75210;52.210;20.902;2024-03-02T04:01:40;99998.22;;;6.49;87.20
84936;BME280;75210;52.210;20.902;2024-03-02T04:02:40;99971.34;;;6.44;86.95
84936;BME280;75210;52.210;20.902;2024-03-02T04:03:41;99943.72;;;6.17;87.20
84936;BME280;75210;52.210;20.902;2024-03-02T04:04:41;99995.78;;;6.45;87.54
84936;BME280;75210;52.210;20.902;2024-03-02T04:05:42;99988.78;;;6.45;87.23
84936;BME280;75210;52.210;20.902;2024-03-02T04:06:42;99969.94;;;6.37;87.02
84936;BME280;75210;52.210;20.902;2024-03-02T04:07:44;99996.47;;;6.50;87.30
84936;BME280;75210;52.210;20.902;2024-03-02T04:08:45;99993.91;;;6.48;87.37
84936;BME280;75210;52.210;20.902;2024-03-02T04:09:45;99994.09;;;6.44;87.54
84936;BME280;75210;52.210;20.902;2024-03-02T04:10:45;99949.19;;;6.11;87.67
84936;BME280;75210;52.210;20.902;2024-03-02T04:11:46;100001.28;;;6.39;87.57
84936;BME280;75210;52.210;20.902;2024-03-02T04:12:46;100000.13;;;6.46;87.10
84936;BME280;75210;52.210;20.902;2024-03-02T04:13:47;99988.50;;;6.31;87.19
84936;BME280;75210;52.210;20.902;2024-03-02T04:14:47;99988.00;;;6.43;87.45
84936;BME280;75210;52.210;20.902;2024-03-02T04:15:48;99981.38;;;6.35;87.18
84936;BME280;75210;52.210;20.902;2024-03-02T04:16:48;100000.97;;;6.46;87.35
84936;BME280;75210;52.210;20.902;2024-03-02T04:17:49;99994.59;;;6.54;87.19
84936;BME280;75210;52.210;20.902;2024-03-02T04:18:49;99999.22;;;6.47;87.15
84936;BME280;75210;52.210;20.902;2024-03-02T04:19:50;99996.97;;;6.38;87.37
84936;BME280;75210;52.210;20.902;2024-03-02T04:20:50;100002.69;;;6.47;87.09
84936;BME280;75210;52.210;20.902;2024-03-02T04:21:50;100012.50;;;6.42;87.50
84936;BME280;75210;52.210;20.902;2024-03-02T04:22:52;99987.53;;;6.34;87.64
84936;BME280;75210;52.210;20.902;2024-03-02T04:23:53;100003.47;;;6.49;87.39
84936;BME280;75210;52.210;20.902;2024-03-02T04:24:53;100004.38;;;6.48;87.23
84936;BME280;75210;52.210;20.902;2024-03-02T04:25:54;99996.78;;;6.42;87.13
84936;BME280;75210;52.210;20.902;2024-03-02T04:26:57;99996.66;;;6.45;87.33
84936;BME280;75210;52.210;20.902;2024-03-02T04:27:58;99991.25;;;6.28;87.47
84936;BME280;75210;52.210;20.902;2024-03-02T04:28:58;100009.81;;;6.44;87.35
84936;BME280;75210;52.210;20.902;2024-03-02T04:29:59;100018.00;;;6.36;87.72
84936;BME280;75210;52.210;20.902;2024-03-02T04:30:59;100003.97;;;6.37;87.41
84936;BME280;75210;52.210;20.902;2024-03-02T04:32:00;100000.69;;;6.32;87.71
84936;BME280;75210;52.210;20.902;2024-03-02T04:33:00;99948.94;;;5.95;87.86
84936;BME280;75210;52.210;20.902;2024-03-02T04:34:00;99999.22;;;6.25;87.92
84936;BME280;75210;52.210;20.902;2024-03-02T04:35:01;100012.16;;;6.30;87.90
84936;BME280;75210;52.210;20.902;2024-03-02T04:36:02;99969.91;;;6.17;87.89
84936;BME280;75210;52.210;20.902;2024-03-02T04:37:02;99945.28;;;5.99;87.83
84936;BME280;75210;52.210;20.902;2024-03-02T04:38:05;100005.06;;;6.32;87.71
84936;BME280;75210;52.210;20.902;2024-03-02T04:39:05;99990.88;;;6.37;87.78
84936;BME280;75210;52.210;20.902;2024-03-02T04:40:07;99995.22;;;6.38;87.52
84936;BME280;75210;52.210;20.902;2024-03-02T04:41:07;100000.03;;;6.27;87.35
84936;BME280;75210;52.210;20.902;2024-03-02T04:42:08;99995.31;;;6.35;87.82
84936;BME280;75210;52.210;20.902;2024-03-02T04:43:08;99987.16;;;6.21;87.79
84936;BME280;75210;52.210;20.902;2024-03-02T04:44:09;99987.91;;;6.25;87.84
84936;BME280;75210;52.210;20.902;2024-03-02T04:45:09;99989.44;;;6.30;88.00
84936;BME280;75210;52.210;20.902;2024-03-02T04:46:10;100005.06;;;6.32;87.63
84936;BME280;75210;52.210;20.902;2024-03-02T04:47:10;100006.78;;;6.33;87.95
84936;BME280;75210;52.210;20.902;2024-03-02T04:48:10;99961.47;;;6.09;87.47
84936;BME280;75210;52.210;20.902;2024-03-02T04:49:11;99978.16;;;6.28;87.63
84936;BME280;75210;52.210;20.902;2024-03-02T04:50:11;99994.47;;;6.35;87.41
84936;BME280;75210;52.210;20.902;2024-03-02T04:51:12;100002.16;;;6.39;87.68
84936;BME280;75210;52.210;20.902;2024-03-02T04:52:12;100000.16;;;6.24;87.71
84936;BME280;75210;52.210;20.902;2024-03-02T04:53:15;99991.25;;;6.28;87.84
84936;BME280;75210;52.210;20.902;2024-03-02T04:54:15;99990.25;;;6.31;87.67
84936;BME280;75210;52.210;20.902;2024-03-02T04:55:16;99997.03;;;6.36;87.33
84936;BME280;75210;52.210;20.902;2024-03-02T04:56:16;99996.34;;;6.31;87.95
84936;BME280;75210;52.210;20.902;2024-03-02T04:57:16;99924.47;;;5.96;87.68
84936;BME280;75210;52.210;20.902;2024-03-02T04:58:17;99982.72;;;6.23;88.17
84936;BME280;75210;52.210;20.902;2024-03-02T04:59:18;100002.59;;;6.29;87.87
84936;BME280;75210;52.210;20.902;2024-03-02T05:00:18;99999.13;;;6.28;87.73
84936;BME280;75210;52.210;20.902;2024-03-02T05:01:19;100002.59;;;6.29;87.78
84936;BME280;75210;52.210;20.902;2024-03-02T05:02:19;99996.44;;;6.30;87.62
84936;BME280;75210;52.210;20.902;2024-03-02T05:03:20;100009.28;;;6.36;87.51
84936;BME280;75210;52.210;20.902;2024-03-02T05:04:20;99984.50;;;6.23;87.82
84936;BME280;75210;52.210;20.902;2024-03-02T05:05:21;100001.06;;;6.23;88.00
84936;BME280;75210;52.210;20.902;2024-03-02T05:06:21;99987.66;;;6.09;88.21
84936;BME280;75210;52.210;20.902;2024-03-02T05:07:21;100003.56;;;6.26;88.22
84936;BME280;75210;52.210;20.902;2024-03-02T05:08:24;99973.13;;;6.02;87.98
84936;BME280;75210;52.210;20.902;2024-03-02T05:09:24;99971.41;;;6.01;88.27
84936;BME280;75210;52.210;20.902;2024-03-02T05:10:25;100008.00;;;6.24;88.36
84936;BME280;75210;52.210;20.902;2024-03-02T05:11:25;100001.91;;;6.24;88.32
84936;BME280;75210;52.210;20.902;2024-03-02T05:12:26;100011.16;;;6.32;87.54
84936;BME280;75210;52.210;20.902;2024-03-02T05:13:26;100018.41;;;6.26;88.06
84936;BME280;75210;52.210;20.902;2024-03-02T05:14:27;99996.19;;;6.14;87.89
84936;BME280;75210;52.210;20.902;2024-03-02T05:15:27;100017.75;;;6.21;87.90
84936;BME280;75210;52.210;20.902;2024-03-02T05:16:29;100013.34;;;6.21;88.25
84936;BME280;75210;52.210;20.902;2024-03-02T05:17:29;100016.03;;;6.20;88.21
84936;BME280;75210;52.210;20.902;2024-03-02T05:18:30;100000.63;;;6.12;88.70
84936;BME280;75210;52.210;20.902;2024-03-02T05:19:30;100017.63;;;6.24;88.38